sensor_id;sensor_type;location;lat;lon;timestamp;pressure;altitude;pressure_sealevel;temperature;humidity
65718;BME280;52445;52.466;-1.016;2023-04-07T00:02:25;100395.59;;;5.85;69.52
65718;BME280;52445;52.466;-1.016;2023-04-07T00:04:52;100398.91;;;5.81;69.53
65718;BME280;52445;52.466;-1.016;2023-04-07T00:07:19;100403.25;;;5.82;69.87
65718;BME280;52445;52.466;-1.016;2023-04-07T00:09:46;100404.94;;;5.82;69.72
65718;BME280;52445;52.466;-1.016;2023-04-07T00:12:12;100414.34;;;5.81;69.99
65718;BME280;52445;52.466;-1.016;2023-04-07T00:14:39;100409.19;;;5.81;69.48
65718;BME280;52445;52.466;-1.016;2023-04-07T00:17:05;100416.03;;;5.79;69.58
65718;BME280;52445;52.466;-1.016;2023-04-07T00:19:32;100410.81;;;5.76;71.18
65718;BME280;52445;52.466;-1.016;2023-04-07T00:21:59;100413.28;;;5.73;69.67
65718;BME280;52445;52.466;-1.016;2023-04-07T00:24:25;100416.75;;;5.73;69.78
65718;BME280;52445;52.466;-1.016;2023-04-07T00:27:00;100410.72;;;5.73;69.58
65718;BME280;52445;52.466;-1.016;2023-04-07T00:29:27;100414.13;;;5.72;69.83
65718;BME280;52445;52.466;-1.016;2023-04-07T00:31:54;100420.94;;;5.70;70.81
65718;BME280;52445;52.466;-1.016;2023-04-07T00:34:21;100430.34;;;5.69;70.25
65718;BME280;52445;52.466;-1.016;2023-04-07T00:36:48;100419.19;;;5.69;69.73
65718;BME280;52445;52.466;-1.016;2023-04-07T00:39:18;100419.13;;;5.65;70.17
65718;BME280;52445;52.466;-1.016;2023-04-07T00:41:45;100425.09;;;5.64;69.84
65718;BME280;52445;52.466;-1.016;2023-04-07T00:44:12;100424.22;;;5.62;70.95
65718;BME280;52445;52.466;-1.016;2023-04-07T00:46:40;100425.03;;;5.61;70.93
65718;BME280;52445;52.466;-1.016;2023-04-07T00:49:07;100430.13;;;5.60;70.92
65718;BME280;52445;52.466;-1.016;2023-04-07T00:51:36;100424.94;;;5.57;71.03
65718;BME280;52445;52.466;-1.016;2023-04-07T00:54:03;100429.19;;;5.56;70.60
65718;BME280;52445;52.466;-1.016;2023-04-07T00:56:30;100426.53;;;5.53;71.39
65718;BME280;52445;52.466;-1.016;2023-04-07T00:58:57;100435.94;;;5.51;70.89
65718;BME280;52445;52.466;-1.016;2023-04-07T01:01:28;100433.38;;;5.51;71.56
65718;BME280;52445;52.466;-1.016;2023-04-07T01:04:02;100436.75;;;5.50;70.61
65718;BME280;52445;52.466;-1.016;2023-04-07T01:06:34;100434.13;;;5.47;71.94
65718;BME280;52445;52.466;-1.016;2023-04-07T01:09:15;100427.19;;;5.43;72.14
65718;BME280;52445;52.466;-1.016;2023-04-07T01:11:54;100422.03;;;5.43;72.32
65718;BME280;52445;52.466;-1.016;2023-04-07T01:14:26;100431.38;;;5.40;71.35
65718;BME280;52445;52.466;-1.016;2023-04-07T01:16:56;100433.00;;;5.35;71.83
65718;BME280;52445;52.466;-1.016;2023-04-07T01:19:46;100433.88;;;5.37;72.11
65718;BME280;52445;52.466;-1.016;2023-04-07T01:22:17;100439.09;;;5.40;71.44
65718;BME280;52445;52.466;-1.016;2023-04-07T01:25:25;100440.59;;;5.32;72.39
65718;BME280;52445;52.466;-1.016;2023-04-07T01:30:38;100437.19;;;5.33;72.64
65718;BME280;52445;52.466;-1.016;2023-04-07T01:33:08;100437.88;;;5.26;73.28
65718;BME280;52445;52.466;-1.016;2023-04-07T01:35:37;100441.25;;;5.23;73.24
65718;BME280;52445;52.466;-1.016;2023-04-07T01:38:05;100442.03;;;5.21;72.68
65718;BME280;52445;52.466;-1.016;2023-04-07T01:40:34;100443.69;;;5.19;72.81
65718;BME280;52445;52.466;-1.016;2023-04-07T01:43:01;100444.44;;;5.14;73.50
65718;BME280;52445;52.466;-1.016;2023-04-07T01:45:29;100440.97;;;5.12;72.85
65718;BME280;52445;52.466;-1.016;2023-04-07T01:47:58;100440.06;;;5.10;73.80
65718;BME280;52445;52.466;-1.016;2023-04-07T01:50:25;100437.47;;;5.10;73.26
65718;BME280;52445;52.466;-1.016;2023-04-07T01:52:52;100441.72;;;5.08;73.39
65718;BME280;52445;52.466;-1.016;2023-04-07T01:55:20;100439.03;;;5.04;74.09
65718;BME280;52445;52.466;-1.016;2023-04-07T01:57:46;100445.09;;;5.07;72.79
65718;BME280;52445;52.466;-1.016;2023-04-07T02:00:13;100441.56;;;5.02;74.25
65718;BME280;52445;52.466;-1.016;2023-04-07T02:02:43;100446.59;;;4.99;74.06
65718;BME280;52445;52.466;-1.016;2023-04-07T02:05:12;100445.75;;;4.98;74.36
65718;BME280;52445;52.466;-1.016;2023-04-07T02:07:48;100452.63;;;4.99;74.27
65718;BME280;52445;52.466;-1.016;2023-04-07T02:10:20;100450.09;;;5.01;73.85
65718;BME280;52445;52.466;-1.016;2023-04-07T02:12:48;100455.13;;;4.98;74.36
65718;BME280;52445;52.466;-1.016;2023-04-07T02:15:15;100459.41;;;4.97;73.54
65718;BME280;52445;52.466;-1.016;2023-04-07T02:17:51;100445.56;;;4.92;74.50
65718;BME280;52445;52.466;-1.016;2023-04-07T02:20:20;100456.63;;;4.89;74.09
65718;BME280;52445;52.466;-1.016;2023-04-07T02:22:47;100449.78;;;4.88;74.70
65718;BME280;52445;52.466;-1.016;2023-04-07T02:27:59;100458.13;;;4.81;75.20
65718;BME280;52445;52.466;-1.016;2023-04-07T02:30:26;100462.47;;;4.84;74.51
65718;BME280;52445;52.466;-1.016;2023-04-07T02:32:53;100463.34;;;4.84;74.49
65718;BME280;52445;52.466;-1.016;2023-04-07T02:35:20;100469.25;;;4.82;74.90
65718;BME280;52445;52.466;-1.016;2023-04-07T02:37:47;100466.63;;;4.80;75.09
65718;BME280;52445;52.466;-1.016;2023-04-07T02:40:14;100465.88;;;4.83;74.68
65718;BME280;52445;52.466;-1.016;2023-04-07T02:42:41;100472.59;;;4.79;75.44
65718;BME280;52445;52.466;-1.016;2023-04-07T02:45:09;100470.03;;;4.79;75.25
65718;BME280;52445;52.466;-1.016;2023-04-07T02:47:37;100472.69;;;4.82;74.68
65718;BME280;52445;52.466;-1.016;2023-04-07T02:50:04;100474.34;;;4.80;74.35
65718;BME280;52445;52.466;-1.016;2023-04-07T02:52:31;100470.13;;;4.82;74.86
65718;BME280;52445;52.466;-1.016;2023-04-07T02:54:57;100473.53;;;4.81;74.46
65718;BME280;52445;52.466;-1.016;2023-04-07T02:57:24;100470.03;;;4.79;74.36
65718;BME280;52445;52.466;-1.016;2023-04-07T02:59:51;100466.63;;;4.80;74.51
65718;BME280;52445;52.466;-1.016;2023-04-07T03:02:17;100456.38;;;4.80;74.30
65718;BME280;52445;52.466;-1.016;2023-04-07T03:04:44;100453.78;;;4.80;74.76
65718;BME280;52445;52.466;-1.016;2023-04-07T03:07:11;100449.50;;;4.79;74.07
65718;BME280;52445;52.466;-1.016;2023-04-07T03:09:37;100458.03;;;4.78;74.25
65718;BME280;52445;52.466;-1.016;2023-04-07T03:12:04;100455.47;;;4.78;73.81
65718;BME280;52445;52.466;-1.016;2023-04-07T03:14:31;100459.72;;;4.78;74.21
65718;BME280;52445;52.466;-1.016;2023-04-07T03:16:57;100463.06;;;4.75;73.88
65718;BME280;52445;52.466;-1.016;2023-04-07T03:19:24;100463.91;;;4.74;73.75
65718;BME280;52445;52.466;-1.016;2023-04-07T03:21:50;100461.25;;;4.71;74.00
65718;BME280;52445;52.466;-1.016;2023-04-07T03:24:17;100469.78;;;4.70;73.76
65718;BME280;52445;52.466;-1.016;2023-04-07T03:26:44;100469.69;;;4.67;73.34
65718;BME280;52445;52.466;-1.016;2023-04-07T03:29:10;100462.78;;;4.64;73.84
65718;BME280;52445;52.466;-1.016;2023-04-07T03:31:37;100469.56;;;4.62;73.65
65718;BME280;52445;52.466;-1.016;2023-04-07T03:34:04;100467.00;;;4.62;73.13
65718;BME280;52445;52.466;-1.016;2023-04-07T03:36:30;100469.50;;;4.60;73.92
65718;BME280;52445;52.466;-1.016;2023-04-07T03:38:57;100473.75;;;4.58;73.46
65718;BME280;52445;52.466;-1.016;2023-04-07T03:41:24;100473.69;;;4.57;73.48
65718;BME280;52445;52.466;-1.016;2023-04-07T03:43:50;100467.63;;;4.53;73.63
65718;BME280;52445;52.466;-1.016;2023-04-07T03:46:19;100471.09;;;4.55;73.21
65718;BME280;52445;52.466;-1.016;2023-04-07T03:48:46;100476.13;;;4.52;73.50
65718;BME280;52445;52.466;-1.016;2023-04-07T03:51:14;100467.63;;;4.53;73.68
65718;BME280;52445;52.466;-1.016;2023-04-07T03:53:40;100478.59;;;4.49;73.22
65718;BME280;52445;52.466;-1.016;2023-04-07T03:56:07;100480.31;;;4.48;73.65
65718;BME280;52445;52.466;-1.016;2023-04-07T03:58:34;100475.97;;;4.46;73.43
65718;BME280;52445;52.466;-1.016;2023-04-07T04:01:00;100483.59;;;4.44;73.41
65718;BME280;52445;52.466;-1.016;2023-04-07T04:03:27;100479.25;;;4.42;73.33
65718;BME280;52445;52.466;-1.016;2023-04-07T04:05:54;100488.66;;;4.41;73.21
65718;BME280;52445;52.466;-1.016;2023-04-07T04:08:20;100480.84;;;4.38;73.17
65718;BME280;52445;52.466;-1.016;2023-04-07T04:10:47;100480.81;;;4.36;73.06
65718;BME280;52445;52.466;-1.016;2023-04-07T04:13:13;100484.09;;;4.32;73.08
65718;BME280;52445;52.466;-1.016;2023-04-07T04:15:40;100484.00;;;4.29;73.05
65718;BME280;52445;52.466;-1.016;2023-04-07T04:18:06;100489.91;;;4.27;73.11
65718;BME280;52445;52.466;-1.016;2023-04-07T04:20:34;100485.56;;;4.24;73.37
65718;BME280;52445;52.466;-1.016;2023-04-07T04:23:00;100489.81;;;4.22;73.10
65718;BME280;52445;52.466;-1.016;2023-04-07T04:25:27;100497.38;;;4.19;73.07
65718;BME280;52445;52.466;-1.016;2023-04-07T04:27:54;100491.28;;;4.15;73.46
65718;BME280;52445;52.466;-1.016;2023-04-07T04:30:21;100493.91;;;4.17;73.00
65718;BME280;52445;52.466;-1.016;2023-04-07T04:32:48;100491.28;;;4.15;72.97
65718;BME280;52445;52.466;-1.016;2023-04-07T04:35:15;100491.19;;;4.12;73.85
65718;BME280;52445;52.466;-1.016;2023-04-07T04:37:41;100486.03;;;4.10;73.07
65718;BME280;52445;52.466;-1.016;2023-04-07T04:40:08;100490.22;;;4.08;73.07
65718;BME280;52445;52.466;-1.016;2023-04-07T04:42:35;100504.72;;;4.08;72.96
65718;BME280;52445;52.466;-1.016;2023-04-07T04:45:02;100513.19;;;4.05;73.34
65718;BME280;52445;52.466;-1.016;2023-04-07T04:47:29;100516.59;;;4.04;73.24
65718;BME280;52445;52.466;-1.016;2023-04-07T04:49:55;100514.03;;;4.04;73.20
65718;BME280;52445;52.466;-1.016;2023-04-07T04:52:22;100525.13;;;4.03;73.20
65718;BME280;52445;52.466;-1.016;2023-04-07T04:54:49;100525.91;;;4.02;73.45
65718;BME280;52445;52.466;-1.016;2023-04-07T04:57:15;100529.31;;;4.01;73.73
65718;BME280;52445;52.466;-1.016;2023-04-07T04:59:42;100521.56;;;3.99;73.93
65718;BME280;52445;52.466;-1.016;2023-04-07T05:02:09;100531.81;;;3.99;73.36
65718;BME280;52445;52.466;-1.016;2023-04-07T05:04:35;100534.44;;;4.01;73.15
65718;BME280;52445;52.466;-1.016;2023-04-07T05:07:03;100542.94;;;4.00;73.89
65718;BME280;52445;52.466;-1.016;2023-04-07T05:09:29;100545.47;;;3.98;73.72
65718;BME280;52445;52.466;-1.016;2023-04-07T05:11:56;100538.66;;;3.99;73.55
65718;BME280;52445;52.466;-1.016;2023-04-07T05:14:23;100539.44;;;3.98;73.75
65718;BME280;52445;52.466;-1.016;2023-04-07T05:16:49;100543.72;;;3.97;73.94
65718;BME280;52445;52.466;-1.016;2023-04-07T05:19:16;100542.84;;;3.97;73.93
65718;BME280;52445;52.466;-1.016;2023-04-07T05:21:43;100547.97;;;3.97;73.79
65718;BME280;52445;52.466;-1.016;2023-04-07T05:24:09;100553.88;;;3.94;73.39
65718;BME280;52445;52.466;-1.016;2023-04-07T05:26:36;100560.72;;;3.95;73.65
65718;BME280;52445;52.466;-1.016;2023-04-07T05:29:02;100561.63;;;3.96;73.90
65718;BME280;52445;52.466;-1.016;2023-04-07T05:31:29;100558.22;;;3.97;73.76
65718;BME280;52445;52.466;-1.016;2023-04-07T05:33:56;100558.22;;;3.97;73.78
65718;BME280;52445;52.466;-1.016;2023-04-07T05:36:22;100567.59;;;3.96;73.57
65718;BME280;52445;52.466;-1.016;2023-04-07T05:38:49;100564.19;;;3.96;73.98
65718;BME280;52445;52.466;-1.016;2023-04-07T05:41:15;100570.22;;;3.98;73.62
65718;BME280;52445;52.466;-1.016;2023-04-07T05:43:42;100575.34;;;3.98;74.50
65718;BME280;52445;52.466;-1.016;2023-04-07T05:46:08;100562.53;;;3.98;73.91
65718;BME280;52445;52.466;-1.016;2023-04-07T05:48:35;100577.97;;;3.99;73.78
65718;BME280;52445;52.466;-1.016;2023-04-07T05:51:02;100580.56;;;4.01;73.89
65718;BME280;52445;52.466;-1.016;2023-04-07T05:53:29;100577.19;;;4.02;74.39
65718;BME280;52445;52.466;-1.016;2023-04-07T05:55:55;100579.78;;;4.04;74.46
65718;BME280;52445;52.466;-1.016;2023-04-07T05:58:22;100575.50;;;4.03;74.90
65718;BME280;52445;52.466;-1.016;2023-04-07T06:00:49;100574.66;;;4.04;74.84
65718;BME280;52445;52.466;-1.016;2023-04-07T06:03:15;100580.69;;;4.04;74.91
65718;BME280;52445;52.466;-1.016;2023-04-07T06:05:45;100584.06;;;4.03;74.95
65718;BME280;52445;52.466;-1.016;2023-04-07T06:08:11;100592.56;;;4.02;75.45
65718;BME280;52445;52.466;-1.016;2023-04-07T06:10:38;100588.38;;;4.04;75.85
65718;BME280;52445;52.466;-1.016;2023-04-07T06:13:07;100601.28;;;4.07;74.78
65718;BME280;52445;52.466;-1.016;2023-04-07T06:15:33;100596.28;;;4.10;75.52
65718;BME280;52445;52.466;-1.016;2023-04-07T06:18:00;100596.34;;;4.14;75.25
65718;BME280;52445;52.466;-1.016;2023-04-07T06:20:27;100590.41;;;4.15;75.18
65718;BME280;52445;52.466;-1.016;2023-04-07T06:22:54;100605.09;;;4.19;74.91
65718;BME280;52445;52.466;-1.016;2023-04-07T06:25:20;100605.19;;;4.22;75.08
65718;BME280;52445;52.466;-1.016;2023-04-07T06:27:47;100612.16;;;4.26;75.26
65718;BME280;52445;52.466;-1.016;2023-04-07T06:30:14;100607.09;;;4.29;75.10
65718;BME280;52445;52.466;-1.016;2023-04-07T06:32:40;100608.94;;;4.33;75.08
65718;BME280;52445;52.466;-1.016;2023-04-07T06:35:07;100619.31;;;4.36;75.10
65718;BME280;52445;52.466;-1.016;2023-04-07T06:37:34;100614.28;;;4.40;75.34
65718;BME280;52445;52.466;-1.016;2023-04-07T06:40:01;100619.63;;;4.46;75.32
65718;BME280;52445;52.466;-1.016;2023-04-07T06:42:27;100620.56;;;4.49;74.77
65718;BME280;52445;52.466;-1.016;2023-04-07T06:44:54;100627.59;;;4.55;75.40
65718;BME280;52445;52.466;-1.016;2023-04-07T06:47:24;100619.09;;;4.58;75.45
65718;BME280;52445;52.466;-1.016;2023-04-07T06:49:50;100630.34;;;4.61;75.86
65718;BME280;52445;52.466;-1.016;2023-04-07T06:52:17;100633.91;;;4.67;75.14
65718;BME280;52445;52.466;-1.016;2023-04-07T06:54:43;100632.41;;;4.73;75.42
65718;BME280;52445;52.466;-1.016;2023-04-07T06:57:10;100637.69;;;4.78;75.55
65718;BME280;52445;52.466;-1.016;2023-04-07T06:59:38;100637.88;;;4.84;74.99
65718;BME280;52445;52.466;-1.016;2023-04-07T07:02:04;100640.66;;;4.92;74.78
65718;BME280;52445;52.466;-1.016;2023-04-07T07:04:33;100640.00;;;5.28;75.28
65718;BME280;52445;52.466;-1.016;2023-04-07T07:07:00;100642.47;;;6.21;74.42
65718;BME280;52445;52.466;-1.016;2023-04-07T07:09:27;100649.00;;;7.22;72.83
65718;BME280;52445;52.466;-1.016;2023-04-07T07:11:54;100647.19;;;8.07;71.08
65718;BME280;52445;52.466;-1.016;2023-04-07T07:14:21;100654.41;;;8.85;69.97
65718;BME280;52445;52.466;-1.016;2023-04-07T07:16:47;100650.91;;;9.48;68.76
65718;BME280;52445;52.466;-1.016;2023-04-07T07:19:14;100651.47;;;10.01;66.92
65718;BME280;52445;52.466;-1.016;2023-04-07T07:21:41;100655.34;;;10.50;66.12
65718;BME280;52445;52.466;-1.016;2023-04-07T07:24:07;100656.53;;;11.07;65.21
65718;BME280;52445;52.466;-1.016;2023-04-07T07:26:34;100662.78;;;11.61;63.74
65718;BME280;52445;52.466;-1.016;2023-04-07T07:29:01;100662.91;;;12.11;63.77
65718;BME280;52445;52.466;-1.016;2023-04-07T07:31:27;100663.75;;;12.78;63.08
65718;BME280;52445;52.466;-1.016;2023-04-07T07:33:54;100673.13;;;13.34;61.39
65718;BME280;52445;52.466;-1.016;2023-04-07T07:36:21;100667.72;;;13.79;59.63
65718;BME280;52445;52.466;-1.016;2023-04-07T07:38:49;100671.75;;;14.21;59.50
65718;BME280;52445;52.466;-1.016;2023-04-07T07:41:16;100674.88;;;14.63;59.25
65718;BME280;52445;52.466;-1.016;2023-04-07T07:43:43;100675.25;;;15.15;57.88
65718;BME280;52445;52.466;-1.016;2023-04-07T07:46:09;100683.44;;;15.55;56.52
65718;BME280;52445;52.466;-1.016;2023-04-07T07:48:36;100669.94;;;15.88;55.38
65718;BME280;52445;52.466;-1.016;2023-04-07T07:51:03;100675.88;;;16.02;54.39
65718;BME280;52445;52.466;-1.016;2023-04-07T07:53:29;100676.41;;;16.22;54.14
65718;BME280;52445;52.466;-1.016;2023-04-07T07:55:56;100678.50;;;16.53;53.47
65718;BME280;52445;52.466;-1.016;2023-04-07T07:58:23;100681.34;;;16.89;52.62
65718;BME280;52445;52.466;-1.016;2023-04-07T08:00:50;100684.34;;;17.16;52.25
65718;BME280;52445;52.466;-1.016;2023-04-07T08:03:16;100685.50;;;17.45;51.79
65718;BME280;52445;52.466;-1.016;2023-04-07T08:05:46;100679.66;;;17.73;50.65
65718;BME280;52445;52.466;-1.016;2023-04-07T08:08:13;100679.41;;;17.84;49.54
65718;BME280;52445;52.466;-1.016;2023-04-07T08:10:40;100683.03;;;17.79;48.68
65718;BME280;52445;52.466;-1.016;2023-04-07T08:13:06;100685.03;;;17.67;47.80
65718;BME280;52445;52.466;-1.016;2023-04-07T08:15:33;100684.13;;;17.70;47.00
65718;BME280;52445;52.466;-1.016;2023-04-07T08:18:00;100685.66;;;17.79;47.69
65718;BME280;52445;52.466;-1.016;2023-04-07T08:20:30;100690.59;;;17.93;46.93
65718;BME280;52445;52.466;-1.016;2023-04-07T08:22:57;100686.81;;;18.05;46.51
65718;BME280;52445;52.466;-1.016;2023-04-07T08:25:24;100688.19;;;18.21;46.81
65718;BME280;52445;52.466;-1.016;2023-04-07T08:27:51;100690.44;;;18.37;46.44
65718;BME280;52445;52.466;-1.016;2023-04-07T08:30:17;100691.03;;;18.48;45.83
65718;BME280;52445;52.466;-1.016;2023-04-07T08:32:46;100696.78;;;18.63;45.90
65718;BME280;52445;52.466;-1.016;2023-04-07T08:35:13;100699.50;;;18.93;45.70
65718;BME280;52445;52.466;-1.016;2023-04-07T08:37:40;100701.25;;;19.26;45.43
65718;BME280;52445;52.466;-1.016;2023-04-07T08:40:07;100703.66;;;19.64;45.25
65718;BME280;52445;52.466;-1.016;2023-04-07T08:42:40;100712.03;;;19.77;43.40
65718;BME280;52445;52.466;-1.016;2023-04-07T08:45:07;100710.88;;;19.86;43.65
65718;BME280;52445;52.466;-1.016;2023-04-07T08:47:36;100713.88;;;19.73;43.04
65718;BME280;52445;52.466;-1.016;2023-04-07T08:50:08;100712.03;;;19.77;42.70
65718;BME280;52445;52.466;-1.016;2023-04-07T08:52:43;100705.66;;;19.84;43.03
65718;BME280;52445;52.466;-1.016;2023-04-07T08:55:12;100709.47;;;20.04;42.54
65718;BME280;52445;52.466;-1.016;2023-04-07T08:57:40;100709.44;;;20.33;43.01
65718;BME280;52445;52.466;-1.016;2023-04-07T09:00:07;100710.09;;;20.65;42.79
65718;BME280;52445;52.466;-1.016;2023-04-07T09:02:38;100707.63;;;20.86;41.78
65718;BME280;52445;52.466;-1.016;2023-04-07T09:05:07;100709.63;;;20.79;40.87
65718;BME280;52445;52.466;-1.016;2023-04-07T09:07:35;100707.97;;;20.76;41.03
65718;BME280;52445;52.466;-1.016;2023-04-07T09:10:02;100703.72;;;20.72;41.03
65718;BME280;52445;52.466;-1.016;2023-04-07T09:12:30;100704.31;;;20.80;41.05
65718;BME280;52445;52.466;-1.016;2023-04-07T09:14:57;100699.69;;;20.87;41.04
65718;BME280;52445;52.466;-1.016;2023-04-07T09:17:24;100703.34;;;21.09;41.22
65718;BME280;52445;52.466;-1.016;2023-04-07T09:19:55;100699.13;;;21.28;40.63
65718;BME280;52445;52.466;-1.016;2023-04-07T09:25:11;100705.97;;;21.80;40.43
65718;BME280;52445;52.466;-1.016;2023-04-07T09:27:38;100710.66;;;21.96;40.56
65718;BME280;52445;52.466;-1.016;2023-04-07T09:30:12;100703.00;;;22.11;39.81
65718;BME280;52445;52.466;-1.016;2023-04-07T09:32:40;100709.63;;;22.21;39.08
65718;BME280;52445;52.466;-1.016;2023-04-07T09:35:07;100709.28;;;22.30;39.56
65718;BME280;52445;52.466;-1.016;2023-04-07T09:37:34;100708.88;;;22.40;39.17
65718;BME280;52445;52.466;-1.016;2023-04-07T09:40:01;100704.47;;;22.40;38.09
65718;BME280;52445;52.466;-1.016;2023-04-07T09:42:28;100705.06;;;22.47;38.90
65718;BME280;52445;52.466;-1.016;2023-04-07T09:44:58;100702.72;;;22.62;38.69
65718;BME280;52445;52.466;-1.016;2023-04-07T09:47:28;100702.44;;;22.68;37.46
65718;BME280;52445;52.466;-1.016;2023-04-07T09:49:55;100702.97;;;22.76;37.74
65718;BME280;52445;52.466;-1.016;2023-04-07T09:52:25;100703.88;;;22.54;37.13
65718;BME280;52445;52.466;-1.016;2023-04-07T09:54:51;100703.91;;;22.75;38.95
65718;BME280;52445;52.466;-1.016;2023-04-07T09:57:19;100706.59;;;22.73;37.19
65718;BME280;52445;52.466;-1.016;2023-04-07T09:59:47;100698.41;;;22.59;36.97
65718;BME280;52445;52.466;-1.016;2023-04-07T10:02:14;100700.91;;;22.41;37.15
65718;BME280;52445;52.466;-1.016;2023-04-07T10:04:41;100696.84;;;22.32;36.99
65718;BME280;52445;52.466;-1.016;2023-04-07T10:07:07;100699.25;;;22.39;37.67
65718;BME280;52445;52.466;-1.016;2023-04-07T10:09:34;100695.16;;;22.31;37.84
65718;BME280;52445;52.466;-1.016;2023-04-07T10:12:01;100699.94;;;22.21;37.17
65718;BME280;52445;52.466;-1.016;2023-04-07T10:14:30;100698.84;;;22.27;37.97
65718;BME280;52445;52.466;-1.016;2023-04-07T10:16:59;100692.00;;;22.44;37.34
65718;BME280;52445;52.466;-1.016;2023-04-07T10:19:30;100688.59;;;22.63;38.05
65718;BME280;52445;52.466;-1.016;2023-04-07T10:21:58;100688.47;;;22.66;36.91
65718;BME280;52445;52.466;-1.016;2023-04-07T10:27:06;100690.13;;;22.68;37.36
65718;BME280;52445;52.466;-1.016;2023-04-07T10:29:36;100684.66;;;22.51;36.32
65718;BME280;52445;52.466;-1.016;2023-04-07T10:32:05;100678.63;;;22.26;36.26
65718;BME280;52445;52.466;-1.016;2023-04-07T10:37:25;100686.91;;;21.96;37.32
65718;BME280;52445;52.466;-1.016;2023-04-07T10:42:56;100684.69;;;21.39;37.14
65718;BME280;52445;52.466;-1.016;2023-04-07T10:45:52;100686.56;;;21.11;38.07
65718;BME280;52445;52.466;-1.016;2023-04-07T10:48:21;100687.91;;;20.99;37.36
65718;BME280;52445;52.466;-1.016;2023-04-07T10:54:17;100682.94;;;20.90;36.58
65718;BME280;52445;52.466;-1.016;2023-04-07T10:59:40;100686.47;;;20.63;37.41
65718;BME280;52445;52.466;-1.016;2023-04-07T11:04:48;100685.50;;;20.66;37.47
65718;BME280;52445;52.466;-1.016;2023-04-07T11:07:15;100681.25;;;20.62;38.44
65718;BME280;52445;52.466;-1.016;2023-04-07T11:09:45;100681.06;;;20.68;37.45
65718;BME280;52445;52.466;-1.016;2023-04-07T11:12:27;100682.38;;;20.54;36.55
65718;BME280;52445;52.466;-1.016;2023-04-07T11:14:54;100678.25;;;20.47;37.16
65718;BME280;52445;52.466;-1.016;2023-04-07T11:17:21;100673.16;;;20.42;37.77
65718;BME280;52445;52.466;-1.016;2023-04-07T11:19:50;100685.28;;;20.47;37.68
65718;BME280;52445;52.466;-1.016;2023-04-07T11:22:17;100693.13;;;20.48;37.21
65718;BME280;52445;52.466;-1.016;2023-04-07T11:24:47;100682.81;;;20.42;36.58
65718;BME280;52445;52.466;-1.016;2023-04-07T11:27:14;100688.16;;;20.39;36.21
65718;BME280;52445;52.466;-1.016;2023-04-07T11:29:41;100682.34;;;20.29;37.37
65718;BME280;52445;52.466;-1.016;2023-04-07T11:32:09;100692.13;;;20.25;37.35
65718;BME280;52445;52.466;-1.016;2023-04-07T11:34:36;100678.06;;;20.26;37.59
65718;BME280;52445;52.466;-1.016;2023-04-07T11:37:23;100681.09;;;20.14;35.79
65718;BME280;52445;52.466;-1.016;2023-04-07T11:39:56;100686.81;;;19.98;36.33
65718;BME280;52445;52.466;-1.016;2023-04-07T11:42:39;100686.41;;;19.84;34.98
65718;BME280;52445;52.466;-1.016;2023-04-07T11:45:17;100679.53;;;19.80;36.54
65718;BME280;52445;52.466;-1.016;2023-04-07T11:47:44;100677.13;;;20.00;36.99
65718;BME280;52445;52.466;-1.016;2023-04-07T11:50:11;100682.69;;;20.20;36.46
65718;BME280;52445;52.466;-1.016;2023-04-07T11:55:20;100673.44;;;20.33;36.60
65718;BME280;52445;52.466;-1.016;2023-04-07T11:57:48;100676.84;;;20.10;36.33
65718;BME280;52445;52.466;-1.016;2023-04-07T12:00:16;100684.88;;;19.76;36.48
65718;BME280;52445;52.466;-1.016;2023-04-07T12:02:44;100676.16;;;19.46;36.61
65718;BME280;52445;52.466;-1.016;2023-04-07T12:05:11;100678.56;;;19.23;36.88
65718;BME280;52445;52.466;-1.016;2023-04-07T12:07:38;100671.19;;;19.05;37.31
65718;BME280;52445;52.466;-1.016;2023-04-07T12:10:22;100674.72;;;19.04;37.22
65718;BME280;52445;52.466;-1.016;2023-04-07T12:12:51;100684.97;;;19.13;38.22
65718;BME280;52445;52.466;-1.016;2023-04-07T12:15:18;100684.38;;;19.35;38.66
65718;BME280;52445;52.466;-1.016;2023-04-07T12:17:47;100684.53;;;19.59;38.16
65718;BME280;52445;52.466;-1.016;2023-04-07T12:20:14;100683.81;;;19.53;37.11
65718;BME280;52445;52.466;-1.016;2023-04-07T12:22:41;100686.34;;;19.57;37.63
65718;BME280;52445;52.466;-1.016;2023-04-07T12:25:08;100680.16;;;19.58;37.29
65718;BME280;52445;52.466;-1.016;2023-04-07T12:27:35;100675.75;;;19.60;37.08
65718;BME280;52445;52.466;-1.016;2023-04-07T12:30:09;100680.28;;;19.55;37.75
65718;BME280;52445;52.466;-1.016;2023-04-07T12:32:37;100671.16;;;19.36;37.26
65718;BME280;52445;52.466;-1.016;2023-04-07T12:35:05;100672.13;;;19.34;37.78
65718;BME280;52445;52.466;-1.016;2023-04-07T12:37:31;100672.28;;;19.29;38.10
65718;BME280;52445;52.466;-1.016;2023-04-07T12:39:58;100666.94;;;19.31;38.08
65718;BME280;52445;52.466;-1.016;2023-04-07T12:42:26;100676.28;;;19.41;39.05
65718;BME280;52445;52.466;-1.016;2023-04-07T12:44:52;100675.25;;;19.47;38.33
65718;BME280;52445;52.466;-1.016;2023-04-07T12:47:19;100676.16;;;19.46;38.65
65718;BME280;52445;52.466;-1.016;2023-04-07T12:49:46;100673.50;;;19.47;37.67
65718;BME280;52445;52.466;-1.016;2023-04-07T12:52:15;100670.94;;;19.44;37.80
65718;BME280;52445;52.466;-1.016;2023-04-07T12:54:42;100671.78;;;19.46;38.34
65718;BME280;52445;52.466;-1.016;2023-04-07T12:57:09;100671.88;;;19.43;38.18
65718;BME280;52445;52.466;-1.016;2023-04-07T12:59:36;100669.53;;;19.32;37.68
65718;BME280;52445;52.466;-1.016;2023-04-07T13:02:03;100674.13;;;19.25;37.95
65718;BME280;52445;52.466;-1.016;2023-04-07T13:04:30;100667.41;;;19.15;37.13
65718;BME280;52445;52.466;-1.016;2023-04-07T13:06:57;100667.50;;;19.12;37.48
65718;BME280;52445;52.466;-1.016;2023-04-07T13:09:24;100668.09;;;19.22;37.80
65718;BME280;52445;52.466;-1.016;2023-04-07T13:11:50;100668.03;;;19.25;37.92
65718;BME280;52445;52.466;-1.016;2023-04-07T13:14:17;100666.94;;;19.31;37.54
65718;BME280;52445;52.466;-1.016;2023-04-07T13:16:43;100665.88;;;19.38;37.74
65718;BME280;52445;52.466;-1.016;2023-04-07T13:19:10;100668.50;;;19.38;37.95